METAR Reports From Nearby Airports

 

KTIW - Tacoma, Washington, USA
Distance from station: S 6mi, 10km
Updated: Thu, 27-Apr-2017 2:53am PDT
Overcast
Overcast
 Wind from SSW
Wind: SSW 8 mph , 13 km/h
Temperature: 43°F , 6°C
Wind Chill: 38°F , 3°C
Dew Point: 37°F , 3°C
Humidity: 81%
Barometer: 30.03 inHg , 1016.9 hPa
Clouds: Overcast
Visibility: 10 miles , 16 km
Cloud details: Overcast 9000 ft
2017/04/27 09:53 KTIW 270953Z AUTO 21007KT 10SM OVC090 06/03 A3003 RMK AO2 SLP170 T00610033
KPWT - Bremerton Ntnl, Washington, USA
Distance from station: NW 13mi, 20km
Updated: Wed, 19-Apr-2017 4:55am PDT
NOT Current

 
2017/04/19 11:55 KPWT 191155Z AUTO RMK AO1
KSEA - Seattle/Metro, Washington, USA
Distance from station: ENE 14mi, 23km
Updated: Thu, 27-Apr-2017 3:27am PDT
Mostly cloudy
Mostly cloudy
 Wind from SSW
Wind: SSW 10 mph , 17 km/h
Temperature: 45°F , 7°C
Wind Chill: 40°F , 4°C
Dew Point: 37°F , 3°C
Humidity: 76%
Barometer: 30.03 inHg , 1016.9 hPa
Clouds: Mostly cloudy
Visibility: 10 miles , 16 km
Cloud details: Mostly cloudy 1800 ft
2017/04/27 10:27 KSEA 271027Z 21009KT 10SM BKN018 07/03 A3003 RMK AO2 T00670033
 
KTCM - Tacoma/Mc Chord, Washington, USA
Distance from station: SSE 17mi, 28km
Updated: Thu, 27-Apr-2017 2:58am PDT
Clear
Clear
 Wind from SW
Wind: SW 15 mph , 24 km/h
Temperature: 43°F , 6°C
Wind Chill: 36°F , 2°C
Dew Point: 41°F , 5°C
Humidity: 93%
Barometer: 30.03 inHg , 1016.9 hPa
Clouds: Clear
Visibility: 10 miles , 16 km
2017/04/27 09:58 KTCM 270958Z AUTO 22013KT 10SM CLR 06/05 A3003 RMK AO2 SLP174 T00600047 $
KBFI - Seattle/Boeing, Washington, USA
Distance from station: NE 19mi, 30km
Updated: Thu, 27-Apr-2017 2:53am PDT
Light rain, Overcast
Light rain, Overcast
 Wind from S
Wind: S 7 mph , 11 km/h
Temperature: 45°F , 7°C
Wind Chill: 41°F , 5°C
Dew Point: 43°F , 6°C
Humidity: 93%
Barometer: 30.03 inHg , 1016.9 hPa
Summary: Light rain
Clouds: Overcast
Visibility: 10 miles , 16 km
Cloud details: Partly cloudy 6000 ft
Overcast 7500 ft
2017/04/27 09:53 KBFI 270953Z 18006KT 10SM -RA SCT060 OVC075 07/06 A3003 RMK AO2 RAB19E36B53 SLP169 P0000 T00720056
KGRF - Fort Lewis/Gray, Washington, USA
Distance from station: S 20mi, 32km
Updated: Thu, 27-Apr-2017 2:58am PDT
Few Clouds
Few Clouds
 Wind from varies
Wind: varies 2 mph , 4 km/h
Temperature: 43°F , 6°C
Dew Point: 37°F , 3°C
Humidity: 81%
Barometer: 30.08 inHg , 1018.6 hPa
Clouds: Few Clouds
Visibility: 10 miles , 16 km
Cloud details: Few Clouds 5000 ft
2017/04/27 09:58 KGRF 270958Z VRB02KT 10SM FEW050 06/03 A3008 RMK AO2A SLP188 WND DATA ESTMD ALSTG/SLP ESTMD T00560031
 
KRNT - Renton, Washington, USA
Distance from station: ENE 20mi, 32km
Updated: Thu, 27-Apr-2017 2:53am PDT
Overcast
Overcast
 Wind from S
Wind: S 9 mph , 15 km/h
Temperature: 46°F , 8°C
Wind Chill: 41°F , 5°C
Dew Point: 43°F , 6°C
Humidity: 87%
Barometer: 30.03 inHg , 1016.9 hPa
Clouds: Overcast
Visibility: 10 miles , 16 km
Cloud details: Mostly cloudy 2500 ft
Mostly cloudy 5000 ft
Overcast 7000 ft
2017/04/27 09:53 KRNT 270953Z AUTO 18008KT 10SM BKN025 BKN050 OVC070 08/06 A3003 RMK AO2 RAE41 SLP175 P0001 T00830056
KPLU - Puyallup/Thun, Washington, USA
Distance from station: SE 23mi, 36km
Updated: Thu, 27-Apr-2017 3:35am PDT

 Wind from SSW
Wind: SSW 5 mph , 7 km/h, Gust: 12 mph , 19 km/h
Temperature: 43°F , 6°C
Wind Chill: 40°F , 4°C
Dew Point: 39°F , 4°C
Humidity: 87%
Barometer: 30.05 inHg , 1017.6 hPa
Visibility: 10 miles , 16 km
2017/04/27 10:35 KPLU 271035Z AUTO 20004G10KT 10SM 06/04 A3005 RMK AO2
KSHN - Shelton, Washington, USA
Distance from station: WSW 27mi, 43km
Updated: Thu, 27-Apr-2017 2:53am PDT
Clear
Clear
 Wind from SW
Wind: SW 16 mph , 26 km/h
Temperature: 41°F , 5°C
Wind Chill: 33°F , 1°C
Dew Point: 37°F , 3°C
Humidity: 87%
Barometer: 30.02 inHg , 1016.6 hPa
Clouds: Clear
Visibility: 10 miles , 16 km
2017/04/27 09:53 KSHN 270953Z AUTO 23014KT 10SM CLR 05/03 A3002 RMK AO2 SLP167 T00500033
 
KOLM - Olympia, Washington, USA
Distance from station: SSW 30mi, 49km
Updated: Thu, 27-Apr-2017 2:54am PDT
Few Clouds
Few Clouds
 Wind from SSW
Wind: SSW 12 mph , 19 km/h
Temperature: 41°F , 5°C
Wind Chill: 34°F , 1°C
Dew Point: 39°F , 4°C
Humidity: 93%
Barometer: 30.06 inHg , 1017.9 hPa
Clouds: Few Clouds
Visibility: 10 miles , 16 km
Cloud details: Few Clouds 2500 ft
2017/04/27 09:54 KOLM 270954Z AUTO 20010KT 10SM FEW025 05/04 A3006 RMK AO2 SLP181 T00500039 $
KPAE - Everett, Washington, USA
Distance from station: NNE 41mi, 67km
Updated: Thu, 27-Apr-2017 2:53am PDT
Overcast
Overcast
 Wind from SE
Wind: SE 8 mph , 13 km/h
Temperature: 43°F , 6°C
Wind Chill: 38°F , 3°C
Dew Point: 41°F , 5°C
Humidity: 93%
Barometer: 30.02 inHg , 1016.6 hPa
Clouds: Overcast
Visibility: 10 miles , 16 km
Cloud details: Few Clouds 3000 ft
Few Clouds 5000 ft
Overcast 8000 ft
2017/04/27 09:53 KPAE 270953Z AUTO 13007KT 10SM FEW030 FEW050 OVC080 06/05 A3002 RMK AO2 RAB0854E36 SLP168 P0000 T00560050
KCLS - Chehalis Central, Washington, USA
Distance from station: SSW 50mi, 80km
Updated: Thu, 27-Apr-2017 3:35am PDT
Overcast
Overcast
 Wind from SSW
Wind: SSW 5 mph , 7 km/h
Temperature: 41°F , 5°C
Wind Chill: 38°F , 3°C
Dew Point: 41°F , 5°C
Humidity: 100%
Barometer: 30.07 inHg , 1018.3 hPa
Clouds: Overcast
Visibility: 10 miles , 16 km
Cloud details: Partly cloudy 3100 ft
Overcast 3700 ft
2017/04/27 10:35 KCLS 271035Z AUTO 21004KT 10SM SCT031 OVC037 05/05 A3007 RMK AO2